Time;durP1;ratioP1;P1;durP2;ratioP2;P2;SDS_P1;SDS_P2;PMS_P1;PMS_P2;Temp;Humidity;BMP_temperature;BMP_pressure;BME280_temperature;BME280_humidity;BME280_pressure;Samples;Min_cycle;Max_cycle;Signal;HPM_P1;HPM_P2
2022/02/09 00:08:03;;;;;;;2.83;2.00;;;9.20;99.90;;;;;;6241942;23;20173;-92
2022/02/09 00:10:38;;;;;;;3.40;1.87;;;9.20;99.90;;;;;;6243088;23;20192;-92
2022/02/09 00:13:29;;;;;;;3.43;1.90;;;9.20;99.90;;;;;;6218467;23;20160;-93
2022/02/09 00:16:09;;;;;;;5.17;1.73;;;9.10;99.90;;;;;;6238905;23;20242;-92
2022/02/09 00:18:50;;;;;;;2.97;1.90;;;9.20;99.90;;;;;;6238474;23;20186;-93
2022/02/09 00:21:48;;;;;;;3.53;1.97;;;9.20;99.90;;;;;;6239865;23;20187;-95
2022/02/09 00:30:28;;;;;;;4.70;1.90;;;9.40;99.90;;;;;;6206734;23;20193;-91
2022/02/09 00:36:12;;;;;;;3.80;2.10;;;9.40;99.90;;;;;;6190873;23;20195;-92
2022/02/09 00:41:58;;;;;;;4.37;2.00;;;9.50;99.90;;;;;;6196484;23;20181;-92
2022/02/09 00:44:48;;;;;;;3.20;1.53;;;9.40;99.90;;;;;;6205034;23;20196;-92
2022/02/09 01:38:17;;;;;;;3.47;1.57;;;8.60;99.90;;;;;;6222474;23;20176;-93
2022/02/09 01:57:48;;;;;;;2.53;1.53;;;8.40;99.90;;;;;;6234527;23;20173;-92
2022/02/09 02:00:22;;;;;;;2.30;1.47;;;8.30;99.90;;;;;;6235653;23;20181;-93
2022/02/09 02:02:53;;;;;;;1.70;1.30;;;8.30;99.90;;;;;;6236938;23;20171;-93
2022/02/09 02:05:26;;;;;;;2.33;1.53;;;8.20;99.90;;;;;;6235581;23;20168;-93
2022/02/09 02:08:00;;;;;;;2.73;1.30;;;8.30;99.90;;;;;;6233138;23;20178;-92
2022/02/09 02:10:43;;;;;;;2.90;1.47;;;8.20;99.90;;;;;;6234104;23;20203;-92
2022/02/09 02:13:25;;;;;;;2.53;1.43;;;8.20;99.90;;;;;;6235507;23;20172;-93
2022/02/09 02:16:16;;;;;;;3.03;1.40;;;8.20;99.90;;;;;;6212655;23;20173;-94
2022/02/09 02:27:21;;;;;;;3.00;2.10;;;8.00;99.90;;;;;;6241069;23;20271;-96
2022/02/09 02:30:18;;;;;;;3.47;1.80;;;7.90;99.90;;;;;;6244076;23;20183;-96
2022/02/09 02:33:18;;;;;;;7.30;2.50;;;7.90;99.90;;;;;;6241051;23;20177;-96
2022/02/09 02:39:11;;;;;;;2.73;1.73;;;7.90;99.90;;;;;;6189747;23;20232;-96
2022/02/09 03:13:07;;;;;;;6.17;4.47;;;7.80;99.90;;;;;;6184290;23;20250;-95
2022/02/09 03:15:47;;;;;;;7.90;3.93;;;7.90;99.90;;;;;;6210839;23;20181;-96
2022/02/09 03:43:42;;;;;;;3.90;2.80;;;7.80;99.90;;;;;;6234877;23;20172;-96
2022/02/09 03:46:27;;;;;;;4.10;2.40;;;7.80;99.90;;;;;;6235886;23;20256;-96
2022/02/09 03:52:00;;;;;;;5.27;2.40;;;7.80;99.90;;;;;;6235009;23;20222;-96
2022/02/09 03:54:37;;;;;;;6.43;3.33;;;7.80;99.90;;;;;;6236268;23;20184;-95
2022/02/09 03:57:23;;;;;;;4.67;2.53;;;7.70;99.90;;;;;;6215015;23;20186;-95
2022/02/09 04:36:27;;;;;;;5.30;3.10;;;7.70;99.90;;;;;;6241515;23;20220;-94
2022/02/09 04:39:23;;;;;;;4.80;3.07;;;7.70;99.90;;;;;;6239837;23;20172;-96
2022/02/09 04:47:49;;;;;;;6.73;3.13;;;7.70;99.90;;;;;;6241696;22;20182;-94
2022/02/09 04:50:36;;;;;;;5.50;3.00;;;7.60;99.90;;;;;;6203246;23;20190;-95
2022/02/09 04:54:09;;;;;;;6.77;3.27;;;7.70;99.90;;;;;;6238336;23;20198;-95
2022/02/09 04:56:27;;;;;;;5.83;3.20;;;7.70;99.90;;;;;;6219289;23;20174;-95
2022/02/09 04:59:13;;;;;;;6.17;2.67;;;7.60;99.90;;;;;;6237033;22;20161;-95
2022/02/09 05:02:11;;;;;;;5.50;2.40;;;7.60;99.90;;;;;;6236851;23;20178;-94
2022/02/09 05:05:11;;;;;;;5.57;2.90;;;7.50;99.90;;;;;;6216264;23;20180;-95
2022/02/09 05:24:44;;;;;;;4.43;2.20;;;7.60;99.90;;;;;;6220211;23;20181;-92
2022/02/09 05:27:20;;;;;;;5.93;2.20;;;7.60;99.90;;;;;;6213595;23;20180;-94
2022/02/09 05:29:52;;;;;;;2.00;1.80;;;7.70;99.90;;;;;;6235881;23;20191;-94
2022/02/09 05:32:25;;;;;;;2.87;1.80;;;7.80;99.90;;;;;;6235785;23;20181;-94
2022/02/09 05:34:57;;;;;;;4.30;2.10;;;7.80;99.90;;;;;;6234653;23;20651;-93
2022/02/09 05:37:33;;;;;;;3.30;2.20;;;7.70;99.90;;;;;;6240974;22;20175;-94
2022/02/09 05:40:05;;;;;;;2.83;1.80;;;7.60;99.90;;;;;;6226701;22;20245;-93
2022/02/09 05:42:37;;;;;;;4.67;2.03;;;7.50;99.90;;;;;;6216976;23;20210;-94
2022/02/09 05:45:11;;;;;;;4.13;1.90;;;7.50;99.90;;;;;;6241758;23;20195;-94
2022/02/09 05:48:14;;;;;;;5.07;1.70;;;7.60;99.90;;;;;;6223601;23;20168;-94
2022/02/09 05:50:53;;;;;;;5.70;2.20;;;7.60;99.90;;;;;;6224284;23;20182;-93
2022/02/09 05:53:37;;;;;;;3.93;2.60;;;7.70;99.90;;;;;;6186597;23;20206;-96
2022/02/09 05:56:21;;;;;;;3.73;2.73;;;7.70;99.90;;;;;;6231932;23;20180;-91
2022/02/09 05:59:04;;;;;;;5.03;3.27;;;7.70;99.90;;;;;;6211144;23;20172;-92
2022/02/09 06:01:36;;;;;;;7.53;3.80;;;7.70;99.90;;;;;;6223388;23;20744;-94
2022/02/09 06:04:09;;;;;;;4.93;3.40;;;7.70;99.90;;;;;;6227064;23;20185;-94
2022/02/09 06:06:40;;;;;;;4.63;3.53;;;7.70;99.90;;;;;;6228857;23;20183;-94
2022/02/09 06:09:13;;;;;;;7.27;3.57;;;7.70;99.90;;;;;;6198090;23;20619;-93
2022/02/09 06:11:48;;;;;;;4.80;2.97;;;7.70;99.90;;;;;;6225721;23;20192;-93
2022/02/09 06:19:55;;;;;;;5.60;3.60;;;7.70;99.90;;;;;;6224660;23;20165;-93
2022/02/09 06:22:35;;;;;;;5.97;3.87;;;7.60;99.90;;;;;;6224357;23;20183;-95
2022/02/09 06:25:10;;;;;;;7.03;3.60;;;7.60;99.90;;;;;;6230225;23;20176;-93
2022/02/09 06:27:41;;;;;;;4.37;3.37;;;7.60;99.90;;;;;;6230173;23;20195;-94
2022/02/09 06:30:12;;;;;;;5.17;3.37;;;7.60;99.90;;;;;;6224286;23;20171;-94
2022/02/09 06:32:44;;;;;;;7.40;4.27;;;7.60;99.90;;;;;;6222885;23;20196;-93
2022/02/09 06:35:18;;;;;;;7.57;3.83;;;7.60;99.90;;;;;;6196210;23;20176;-94
2022/02/09 06:37:50;;;;;;;5.17;3.73;;;7.60;99.90;;;;;;6222527;23;20203;-94
2022/02/09 06:40:24;;;;;;;6.47;4.30;;;7.60;99.90;;;;;;6224612;23;20180;-93
2022/02/09 06:42:55;;;;;;;5.70;3.80;;;7.60;99.90;;;;;;6233235;23;20203;-93
2022/02/09 06:45:29;;;;;;;6.63;4.07;;;7.60;99.90;;;;;;6236302;23;20176;-95
2022/02/09 06:48:01;;;;;;;7.07;4.10;;;7.60;99.90;;;;;;6225150;23;20172;-95
2022/02/09 06:50:36;;;;;;;6.87;3.93;;;7.60;99.90;;;;;;6203106;23;20230;-95
2022/02/09 06:53:25;;;;;;;4.63;3.40;;;7.60;99.90;;;;;;6229576;23;20242;-96
2022/02/09 06:56:00;;;;;;;7.73;3.87;;;7.60;99.90;;;;;;6223930;23;20160;-94
2022/02/09 06:58:57;;;;;;;5.60;3.60;;;7.60;99.90;;;;;;6223630;23;20252;-94
2022/02/09 07:01:28;;;;;;;4.77;3.57;;;7.50;99.90;;;;;;6241742;23;20168;-92
2022/02/09 07:04:00;;;;;;;6.43;3.63;;;7.50;99.90;;;;;;6241301;23;20222;-94
2022/02/09 07:06:31;;;;;;;4.23;3.23;;;7.50;99.90;;;;;;6241593;23;20203;-95
2022/02/09 07:09:02;;;;;;;8.10;3.20;;;7.50;99.90;;;;;;6239087;23;20228;-94
2022/02/09 07:11:36;;;;;;;4.83;3.17;;;7.50;99.90;;;;;;6236420;23;20192;-93
2022/02/09 07:14:09;;;;;;;5.10;2.80;;;7.50;99.90;;;;;;6227208;23;20175;-94
2022/02/09 07:16:40;;;;;;;4.23;3.07;;;7.50;99.90;;;;;;6222674;23;20182;-93
2022/02/09 07:19:11;;;;;;;6.80;3.07;;;7.50;99.90;;;;;;6223153;23;20183;-94
2022/02/09 07:21:42;;;;;;;4.27;2.63;;;7.50;99.90;;;;;;6222905;23;20507;-94
2022/02/09 07:24:16;;;;;;;5.07;2.87;;;7.50;99.90;;;;;;6229569;23;20180;-93
2022/02/09 07:27:02;;;;;;;3.80;2.73;;;7.50;99.90;;;;;;6222356;23;20646;-93
2022/02/09 07:29:33;;;;;;;6.13;2.90;;;7.50;99.90;;;;;;6222520;23;20175;-93
2022/02/09 07:32:04;;;;;;;7.07;3.40;;;7.50;99.90;;;;;;6223672;23;20284;-93
2022/02/09 07:34:36;;;;;;;9.20;3.90;;;7.50;99.90;;;;;;6197053;23;20176;-93
2022/02/09 07:37:07;;;;;;;7.73;3.83;;;7.40;99.90;;;;;;6221024;23;20187;-94
2022/02/09 07:39:39;;;;;;;10.10;4.50;;;7.50;99.90;;;;;;6221588;23;20183;-93
2022/02/09 07:42:20;;;;;;;5.60;3.97;;;7.50;99.90;;;;;;6222952;23;20195;-94
2022/02/09 07:45:01;;;;;;;6.77;3.60;;;7.40;99.90;;;;;;6222275;23;20189;-94
2022/02/09 07:47:47;;;;;;;6.93;3.80;;;7.30;99.90;;;;;;6222225;23;20176;-93
2022/02/09 07:50:38;;;;;;;6.67;4.03;;;7.40;99.90;;;;;;6229274;23;20176;-94
2022/02/09 07:53:12;;;;;;;6.93;3.97;;;7.40;99.90;;;;;;6223116;23;20196;-93
2022/02/09 07:55:44;;;;;;;6.87;4.23;;;7.40;99.90;;;;;;6222450;23;20172;-94
2022/02/09 07:58:17;;;;;;;7.40;4.13;;;7.40;99.90;;;;;;6196330;23;20196;-94
2022/02/09 08:00:49;;;;;;;6.77;4.00;;;7.40;99.90;;;;;;6222222;23;20172;-95
2022/02/09 08:03:20;;;;;;;6.60;4.47;;;7.40;99.90;;;;;;6222424;23;20176;-94
2022/02/09 08:05:51;;;;;;;9.40;4.33;;;7.30;99.90;;;;;;6222760;23;20195;-94
2022/02/09 08:08:28;;;;;;;7.93;4.27;;;7.30;99.90;;;;;;6226798;23;20169;-94
2022/02/09 08:11:11;;;;;;;8.67;4.30;;;7.40;99.90;;;;;;6241126;23;20164;-96
2022/02/09 08:31:45;;;;;;;7.67;4.10;;;7.30;99.90;;;;;;6234356;23;20187;-93
2022/02/09 08:34:16;;;;;;;8.83;4.03;;;7.40;99.90;;;;;;6230806;23;20193;-92
2022/02/09 08:36:49;;;;;;;7.00;3.80;;;7.30;99.90;;;;;;6225821;23;20177;-93
2022/02/09 08:39:21;;;;;;;8.57;4.07;;;7.20;99.90;;;;;;6229575;23;20243;-93
2022/02/09 08:41:53;;;;;;;9.47;4.87;;;7.20;99.90;;;;;;6228319;23;20203;-95
2022/02/09 08:44:24;;;;;;;9.87;5.77;;;7.20;99.90;;;;;;6227157;23;20172;-94
2022/02/09 08:46:58;;;;;;;11.13;6.47;;;7.10;99.90;;;;;;6227379;23;20176;-94
2022/02/09 08:49:30;;;;;;;13.77;6.23;;;7.10;99.90;;;;;;6226799;23;20183;-94
2022/02/09 08:52:02;;;;;;;10.93;5.83;;;7.10;99.90;;;;;;6227561;23;20649;-94
2022/02/09 08:54:33;;;;;;;8.47;5.00;;;7.10;99.90;;;;;;6229522;22;20211;-93
2022/02/09 08:57:11;;;;;;;8.03;4.63;;;7.10;99.90;;;;;;6235344;23;20234;-94
2022/02/09 08:59:41;;;;;;;8.83;4.73;;;7.20;99.90;;;;;;6241309;23;20172;-93
2022/02/09 09:02:18;;;;;;;7.90;4.60;;;7.20;99.90;;;;;;6241813;23;20271;-93
2022/02/09 09:04:53;;;;;;;11.30;5.10;;;7.20;99.90;;;;;;6240930;23;20164;-93
2022/02/09 09:07:29;;;;;;;10.23;5.30;;;7.20;99.90;;;;;;6240120;23;20171;-94
2022/02/09 09:10:07;;;;;;;7.70;4.83;;;7.10;99.90;;;;;;6228017;23;20164;-94
2022/02/09 09:18:58;;;;;;;8.63;5.10;;;7.20;99.90;;;;;;6242623;23;20172;-94
2022/02/09 09:58:08;;;;;;;8.40;5.07;;;7.00;99.90;;;;;;6192999;23;20550;-93
2022/02/09 10:03:35;;;;;;;7.00;4.77;;;7.00;99.90;;;;;;6194863;23;20184;-93
2022/02/09 10:35:11;;;;;;;8.53;4.87;;;6.90;99.90;;;;;;6208773;23;20232;-93
2022/02/09 10:37:47;;;;;;;8.43;5.40;;;6.80;99.90;;;;;;6192186;23;20169;-93
2022/02/09 10:40:40;;;;;;;9.13;4.67;;;6.70;99.90;;;;;;6193252;23;20183;-93
2022/02/09 10:43:31;;;;;;;11.23;6.27;;;6.60;99.90;;;;;;6193132;23;20173;-93
2022/02/09 10:46:17;;;;;;;9.00;5.10;;;6.60;99.90;;;;;;6193619;23;20172;-94
2022/02/09 10:48:53;;;;;;;10.83;6.07;;;6.60;99.90;;;;;;6195131;23;20227;-94
2022/02/09 10:51:30;;;;;;;8.07;5.57;;;6.70;99.90;;;;;;6196006;23;20184;-94
2022/02/09 10:54:12;;;;;;;10.03;5.07;;;6.70;99.90;;;;;;6192741;23;20209;-94
2022/02/09 10:56:46;;;;;;;9.97;4.83;;;6.70;99.90;;;;;;6195847;23;20187;-95
2022/02/09 10:59:23;;;;;;;9.67;5.23;;;6.70;99.90;;;;;;6193007;23;20216;-94
2022/02/09 11:01:55;;;;;;;8.67;4.93;;;6.80;99.90;;;;;;6192356;23;20214;-95
2022/02/09 11:04:27;;;;;;;9.87;5.37;;;6.70;99.90;;;;;;6192507;23;20188;-94
2022/02/09 11:06:58;;;;;;;8.57;5.33;;;6.70;99.90;;;;;;6192541;23;20494;-95
2022/02/09 11:09:31;;;;;;;9.77;5.80;;;6.70;99.90;;;;;;6192949;23;20184;-94
2022/02/09 11:12:03;;;;;;;9.43;5.53;;;6.70;99.90;;;;;;6192595;23;20181;-95
2022/02/09 11:14:36;;;;;;;9.20;5.47;;;6.70;99.90;;;;;;6194223;23;20196;-94
2022/02/09 11:17:07;;;;;;;10.37;5.13;;;6.70;99.90;;;;;;6194784;23;20200;-95
2022/02/09 11:19:44;;;;;;;12.30;5.90;;;6.80;99.90;;;;;;6197276;23;20169;-96
2022/02/09 11:22:23;;;;;;;8.63;5.57;;;6.80;99.90;;;;;;6210584;23;20249;-93
2022/02/09 11:25:13;;;;;;;10.53;5.60;;;6.70;99.90;;;;;;6211674;23;20172;-94
2022/02/09 11:27:51;;;;;;;9.27;5.33;;;6.70;99.90;;;;;;6197307;23;20235;-94
2022/02/09 11:30:34;;;;;;;6.90;4.90;;;6.70;99.90;;;;;;6193744;23;20180;-94
2022/02/09 11:33:19;;;;;;;9.20;5.87;;;6.60;99.90;;;;;;6205066;23;20186;-94
2022/02/09 11:36:16;;;;;;;9.47;6.10;;;6.60;99.90;;;;;;6211361;23;20188;-94
2022/02/09 11:38:52;;;;;;;8.87;5.40;;;6.60;99.90;;;;;;6205340;23;20177;-94
2022/02/09 11:41:33;;;;;;;8.20;5.20;;;6.50;99.90;;;;;;6194301;23;20169;-94
2022/02/09 11:44:11;;;;;;;9.23;5.60;;;6.40;99.90;;;;;;6193581;23;20239;-93
2022/02/09 11:46:55;;;;;;;11.37;5.37;;;6.40;99.90;;;;;;6191270;23;20220;-93
2022/02/09 11:52:31;;;;;;;8.80;5.23;;;6.50;99.90;;;;;;6191965;23;20179;-93
2022/02/09 12:10:11;;;;;;;8.43;5.23;;;6.30;99.90;;;;;;6189236;23;20204;-93
2022/02/09 12:12:58;;;;;;;10.10;5.20;;;6.40;99.90;;;;;;6098781;23;20210;-94
2022/02/09 12:16:32;;;;;;;8.77;5.00;;;6.30;99.90;;;;;;6186649;23;20694;-96
2022/02/09 12:19:09;;;;;;;9.97;5.30;;;6.40;99.90;;;;;;6100505;23;20206;-95
2022/02/09 12:21:49;;;;;;;9.20;5.30;;;6.40;99.90;;;;;;6190909;23;20608;-94
2022/02/09 12:24:32;;;;;;;7.27;4.73;;;6.40;99.90;;;;;;6165403;23;20165;-94
2022/02/09 12:27:05;;;;;;;10.77;5.17;;;6.20;99.90;;;;;;6190106;23;20183;-95
2022/02/09 12:29:38;;;;;;;9.73;5.13;;;6.30;99.90;;;;;;6190642;23;20179;-95
2022/02/09 12:32:28;;;;;;;8.43;4.47;;;6.40;99.90;;;;;;6190275;23;20181;-95
2022/02/09 12:35:02;;;;;;;8.57;4.77;;;6.50;99.90;;;;;;6189980;23;20658;-94
2022/02/09 12:37:34;;;;;;;7.03;4.47;;;6.50;99.90;;;;;;6188624;23;20201;-94
2022/02/09 12:40:08;;;;;;;8.77;5.17;;;6.50;99.90;;;;;;6190094;23;20165;-95
2022/02/09 12:42:41;;;;;;;9.53;4.90;;;6.50;99.90;;;;;;6190198;23;20564;-95
2022/02/09 12:45:15;;;;;;;7.93;4.50;;;6.50;99.90;;;;;;6191282;23;20181;-92
2022/02/09 12:47:47;;;;;;;7.57;5.07;;;6.70;99.90;;;;;;6191053;23;20176;-94
2022/02/09 12:50:24;;;;;;;10.73;4.90;;;6.70;99.90;;;;;;6190698;23;20177;-93
2022/02/09 12:52:56;;;;;;;8.97;4.80;;;6.50;99.90;;;;;;6191976;23;20176;-94
2022/02/09 12:55:31;;;;;;;9.43;4.53;;;6.40;99.90;;;;;;6190662;23;20203;-94
2022/02/09 12:58:05;;;;;;;8.27;4.60;;;6.50;99.90;;;;;;6169439;23;20170;-93
2022/02/09 13:00:40;;;;;;;5.07;4.27;;;6.60;99.90;;;;;;6190449;23;20175;-94
2022/02/09 13:03:13;;;;;;;8.47;4.50;;;6.70;99.90;;;;;;6190091;23;20224;-94
2022/02/09 13:05:49;;;;;;;5.90;4.30;;;6.70;99.90;;;;;;6190318;23;20184;-94
2022/02/09 13:08:22;;;;;;;9.27;4.57;;;6.60;99.90;;;;;;6191564;23;20814;-95
2022/02/09 13:11:03;;;;;;;6.77;4.57;;;6.70;99.90;;;;;;6190491;23;20512;-94
2022/02/09 13:13:37;;;;;;;5.70;4.13;;;6.70;99.90;;;;;;6192370;23;20239;-94
2022/02/09 13:16:15;;;;;;;6.87;4.23;;;6.70;99.90;;;;;;6192548;23;20192;-94
2022/02/09 13:19:07;;;;;;;10.70;4.30;;;6.70;99.90;;;;;;6191270;23;20208;-93
2022/02/09 13:22:28;;;;;;;7.73;4.00;;;6.70;99.90;;;;;;6194037;23;20173;-94
2022/02/09 13:25:26;;;;;;;7.23;4.07;;;6.80;99.90;;;;;;6194064;23;20616;-94
2022/02/09 14:16:57;;;;;;;8.97;4.80;;;6.90;99.90;;;;;;6194939;23;20169;-96
2022/02/09 14:23:47;;;;;;;12.67;5.30;;;6.90;99.90;;;;;;6210296;23;20172;-94
2022/02/09 14:34:59;;;;;;;11.03;5.83;;;6.90;99.90;;;;;;6198051;23;20165;-95
2022/02/09 14:48:56;;;;;;;12.50;5.60;;;6.90;99.90;;;;;;6168466;23;20202;-94
2022/02/09 14:51:46;;;;;;;14.13;5.90;;;7.00;99.90;;;;;;6191217;23;20184;-94
2022/02/09 14:54:29;;;;;;;9.53;5.67;;;6.90;99.90;;;;;;6189840;23;20188;-93
2022/02/09 14:57:05;;;;;;;11.07;5.53;;;6.90;99.90;;;;;;6164389;23;20204;-95
2022/02/09 14:59:49;;;;;;;13.83;5.20;;;6.90;99.90;;;;;;6167227;23;20172;-95
2022/02/09 15:02:35;;;;;;;8.43;5.60;;;6.90;99.90;;;;;;6191724;23;20193;-95
2022/02/09 15:08:09;;;;;;;8.87;5.80;;;7.00;99.90;;;;;;6191315;23;20170;-94
2022/02/09 15:10:46;;;;;;;8.97;5.30;;;7.00;99.90;;;;;;6168879;23;20243;-94
2022/02/09 15:13:29;;;;;;;8.33;5.20;;;7.00;99.90;;;;;;6191074;23;20201;-94
2022/02/09 15:16:09;;;;;;;7.40;4.73;;;7.00;99.90;;;;;;6194083;23;20207;-94
2022/02/09 15:22:01;;;;;;;8.20;5.00;;;7.00;99.90;;;;;;6183165;23;20191;-94
2022/02/09 15:24:50;;;;;;;8.37;5.30;;;7.00;99.90;;;;;;6112820;23;20194;-95
2022/02/09 15:27:22;;;;;;;9.67;5.40;;;7.00;99.90;;;;;;6118330;23;20211;-95
2022/02/09 15:29:54;;;;;;;11.07;5.23;;;7.00;99.90;;;;;;6119121;23;20175;-95
2022/02/09 15:32:31;;;;;;;8.23;5.00;;;7.10;99.90;;;;;;6122604;23;20173;-94
2022/02/09 15:35:13;;;;;;;7.07;4.83;;;7.10;99.90;;;;;;6098188;23;20626;-94
2022/02/09 15:37:54;;;;;;;9.07;4.83;;;7.10;99.90;;;;;;6117407;23;20170;-94
2022/02/09 15:40:33;;;;;;;12.40;5.27;;;7.20;99.90;;;;;;6113156;23;20179;-93
2022/02/09 15:57:02;;;;;;;6.67;4.80;;;7.10;99.90;;;;;;6196723;23;20200;-93
2022/02/09 16:05:43;;;;;;;9.63;5.47;;;7.20;99.90;;;;;;5148589;28;20206;-95
2022/02/09 16:08:41;;;;;;;8.20;5.33;;;7.20;99.90;;;;;;5150178;27;20189;-96
2022/02/09 16:11:35;;;;;;;7.43;5.07;;;7.20;99.90;;;;;;5156319;27;20207;-95
2022/02/09 16:22:51;;;;;;;8.40;5.60;;;7.30;99.90;;;;;;5075825;28;20272;-95
2022/02/09 16:25:48;;;;;;;10.67;5.30;;;7.30;99.90;;;;;;5110366;28;20210;-93
2022/02/09 16:37:19;;;;;;;8.10;4.90;;;7.60;99.90;;;;;;5115365;28;20233;-95
2022/02/09 16:46:02;;;;;;;7.03;4.70;;;7.70;99.90;;;;;;5096064;28;20256;-94
2022/02/09 16:48:34;;;;;;;8.07;4.77;;;7.70;99.90;;;;;;5097802;28;20210;-93
2022/02/09 16:51:12;;;;;;;7.00;4.90;;;7.80;99.90;;;;;;5096189;28;20233;-92
2022/02/09 16:53:53;;;;;;;8.77;5.20;;;7.60;99.90;;;;;;5122095;28;20236;-92
2022/02/09 16:56:39;;;;;;;9.67;5.33;;;7.50;99.90;;;;;;5125863;27;20236;-93
2022/02/09 17:18:56;;;;;;;6.53;3.80;;;8.10;99.90;;;;;;5006234;28;20225;-92
2022/02/09 17:21:29;;;;;;;7.37;4.07;;;8.10;99.90;;;;;;5013979;28;20225;-94
2022/02/09 17:24:01;;;;;;;5.83;3.70;;;8.20;99.90;;;;;;5033553;28;20197;-93
2022/02/09 17:26:35;;;;;;;10.13;4.03;;;8.20;99.90;;;;;;5031472;28;20201;-94
2022/02/09 17:29:06;;;;;;;5.20;3.77;;;8.30;99.90;;;;;;5020243;28;20221;-93
2022/02/09 17:31:45;;;;;;;6.90;3.70;;;8.20;99.90;;;;;;5019677;28;20228;-93
2022/02/09 17:37:45;;;;;;;6.20;4.00;;;8.20;99.90;;;;;;5006491;28;20199;-93
2022/02/09 17:55:01;;;;;;;8.00;4.80;;;8.50;99.90;;;;;;5023712;28;20198;-92
2022/02/09 17:57:22;;;;;;;7.53;4.53;;;8.60;99.90;;;;;;5031690;28;20584;-92
2022/02/09 18:00:10;;;;;;;8.80;4.43;;;8.60;99.90;;;;;;5032678;28;20225;-91
2022/02/09 18:02:41;;;;;;;9.90;4.80;;;8.70;99.90;;;;;;5029213;28;20745;-91
2022/02/09 18:05:21;;;;;;;7.20;4.10;;;8.70;99.90;;;;;;5015428;28;20218;-91
2022/02/09 18:07:56;;;;;;;10.10;4.20;;;8.80;99.90;;;;;;5007739;28;20234;-92
2022/02/09 18:10:44;;;;;;;7.93;4.70;;;9.10;99.90;;;;;;5008230;28;20272;-91
2022/02/09 18:13:40;;;;;;;8.13;3.80;;;9.20;99.90;;;;;;5007254;28;20210;-91
2022/02/09 18:30:32;;;;;;;8.40;5.73;;;9.00;99.90;;;;;;5006471;28;20201;-92
2022/02/09 18:44:39;;;;;;;10.17;5.47;;;9.20;99.90;;;;;;5014559;28;20237;-93
2022/02/09 19:01:35;;;;;;;5.33;4.00;;;9.70;99.90;;;;;;5684477;23;20241;-92
2022/02/09 19:04:12;;;;;;;6.63;3.70;;;9.80;99.90;;;;;;5035067;28;20225;-92
2022/02/09 19:07:16;;;;;;;5.47;4.00;;;9.80;99.90;;;;;;5031782;28;20257;-91
2022/02/09 19:26:14;;;;;;;8.80;5.87;;;10.30;99.90;;;;;;5029650;28;20577;-92
2022/02/09 19:27:04;;;;;;;8.87;5.53;;;10.40;99.90;;;;;;5029731;28;20210;-94
2022/02/09 19:46:53;;;;;;;9.83;5.43;;;10.80;99.90;;;;;;4998175;28;20230;-93
2022/02/09 19:49:44;;;;;;;8.77;5.47;;;10.90;99.90;;;;;;4998852;28;20229;-91
2022/02/09 19:52:30;;;;;;;8.53;5.60;;;11.00;99.90;;;;;;5015993;28;20197;-89
2022/02/09 19:57:54;;;;;;;11.37;5.33;;;11.00;99.90;;;;;;5057191;23;20272;-91
2022/02/09 20:00:27;;;;;;;8.97;4.80;;;10.90;99.90;;;;;;5024135;28;20217;-92
2022/02/09 20:02:59;;;;;;;9.00;5.40;;;10.60;99.90;;;;;;5019537;28;20237;-93
2022/02/09 20:05:30;;;;;;;7.87;5.00;;;10.70;99.90;;;;;;5018671;28;20217;-93
2022/02/09 20:08:04;;;;;;;8.17;5.10;;;10.60;99.90;;;;;;5017486;28;20236;-93
2022/02/09 20:10:35;;;;;;;8.57;4.40;;;10.80;99.90;;;;;;5018186;28;20233;-92
2022/02/09 20:13:08;;;;;;;8.43;4.60;;;10.90;99.90;;;;;;5020079;28;20206;-92
2022/02/09 20:15:39;;;;;;;7.87;4.70;;;11.00;99.90;;;;;;5017041;28;20296;-93
2022/02/09 20:18:09;;;;;;;8.40;4.93;;;11.00;99.90;;;;;;5016892;28;20212;-94
2022/02/09 20:20:41;;;;;;;8.03;4.90;;;11.00;99.90;;;;;;5020094;28;20237;-94
2022/02/09 20:23:13;;;;;;;9.07;5.10;;;11.20;99.90;;;;;;5020190;28;20233;-93
2022/02/09 20:25:44;;;;;;;6.10;4.30;;;11.40;99.90;;;;;;5018668;28;20214;-92
2022/02/09 20:28:17;;;;;;;8.17;4.20;;;11.40;99.90;;;;;;5022106;28;20246;-93
2022/02/09 20:30:55;;;;;;;6.07;4.37;;;11.30;99.90;;;;;;5022770;28;20241;-93
2022/02/09 20:33:33;;;;;;;7.60;4.20;;;11.30;99.90;;;;;;5017589;28;20205;-92
2022/02/09 20:36:06;;;;;;;7.00;4.43;;;11.30;99.90;;;;;;5020646;28;20232;-93
2022/02/09 20:38:38;;;;;;;8.70;4.00;;;11.40;99.90;;;;;;5020162;28;20232;-94
2022/02/09 20:41:12;;;;;;;8.33;4.40;;;11.50;99.90;;;;;;5020875;28;20214;-92
2022/02/09 20:43:57;;;;;;;7.13;4.20;;;11.80;99.90;;;;;;5019745;28;20237;-91
2022/02/09 20:46:32;;;;;;;7.73;3.60;;;11.80;99.90;;;;;;5020403;28;20276;-92
2022/02/09 20:49:04;;;;;;;8.17;3.67;;;11.70;99.90;;;;;;5023674;28;20209;-93
2022/02/09 20:51:35;;;;;;;5.23;3.73;;;11.70;99.90;;;;;;5036294;28;20265;-93
2022/02/09 20:54:07;;;;;;;5.60;3.70;;;11.80;99.90;;;;;;5040582;28;20197;-94
2022/02/09 20:56:39;;;;;;;7.73;3.33;;;11.90;99.90;;;;;;5040210;28;20201;-93
2022/02/09 20:59:15;;;;;;;5.27;2.87;;;11.80;99.90;;;;;;5037863;28;20257;-91
2022/02/09 21:01:55;;;;;;;5.47;3.13;;;11.80;99.90;;;;;;5032103;28;20225;-92
2022/02/09 21:04:29;;;;;;;7.43;2.37;;;11.70;99.90;;;;;;5008653;28;20242;-93
2022/02/09 21:07:10;;;;;;;4.83;2.63;;;11.70;99.90;;;;;;5011007;28;20216;-92
2022/02/09 21:09:49;;;;;;;5.23;2.67;;;11.80;99.90;;;;;;5005658;28;20217;-91
2022/02/09 21:12:32;;;;;;;5.83;2.00;;;12.00;99.90;;;;;;5002334;28;20584;-92
2022/02/09 21:15:33;;;;;;;5.60;2.73;;;12.00;99.90;;;;;;5013285;28;20210;-92
2022/02/09 21:18:27;;;;;;;3.60;1.80;;;12.10;99.90;;;;;;5008700;28;20214;-92
2022/02/09 21:32:32;;;;;;;2.80;1.10;;;12.20;99.90;;;;;;5014477;28;20216;-93
2022/02/09 21:54:56;;;;;;;1.93;1.27;;;12.10;99.90;;;;;;5028202;28;20216;-92
2022/02/09 21:57:37;;;;;;;3.17;1.37;;;12.10;99.90;;;;;;5028587;28;20220;-93
2022/02/09 22:00:30;;;;;;;3.13;1.97;;;12.00;99.90;;;;;;5030514;28;20248;-94
2022/02/09 22:20:23;;;;;;;2.67;1.63;;;12.00;99.90;;;;;;5031952;28;20213;-94
2022/02/09 22:28:30;;;;;;;3.33;1.60;;;12.10;99.90;;;;;;5012581;28;20217;-94
2022/02/09 22:48:12;;;;;;;4.80;1.60;;;12.40;99.90;;;;;;5313232;23;20220;-93
2022/02/09 22:50:46;;;;;;;3.83;1.70;;;12.40;99.90;;;;;;5037159;28;20218;-94
2022/02/09 22:56:12;;;;;;;3.07;1.60;;;12.60;99.90;;;;;;5045997;28;20257;-93
2022/02/09 22:58:44;;;;;;;2.73;1.77;;;12.70;99.90;;;;;;5055815;28;20227;-93
2022/02/09 23:01:22;;;;;;;5.90;2.03;;;12.90;99.90;;;;;;5018955;28;20194;-93
2022/02/09 23:04:14;;;;;;;3.50;2.10;;;12.90;99.90;;;;;;5018987;28;20225;-92
2022/02/09 23:06:53;;;;;;;4.10;1.50;;;12.70;99.90;;;;;;5033370;28;20186;-93
2022/02/09 23:15:09;;;;;;;2.40;1.57;;;12.50;99.90;;;;;;5074770;28;20235;-93
2022/02/09 23:55:25;;;;;;;2.73;1.80;;;12.20;99.90;;;;;;5037544;28;20260;-94
